Time;durP1;ratioP1;P1;durP2;ratioP2;P2;SDS_P1;SDS_P2;PMS_P1;PMS_P2;Temp;Humidity;BMP_temperature;BMP_pressure;BME280_temperature;BME280_humidity;BME280_pressure;Samples;Min_cycle;Max_cycle;Signal;HPM_P1;HPM_P2
2023/09/08 00:02:18;;;;;;;2.93;1.10;;;;;;;;;;5050272;28;20028;-69
2023/09/08 00:04:45;;;;;;;1.60;0.77;;;;;;;;;;5050702;28;20033;-67
2023/09/08 00:07:12;;;;;;;1.83;1.27;;;;;;;;;;5032432;28;20115;-68
2023/09/08 00:09:38;;;;;;;1.97;1.33;;;;;;;;;;5050956;28;20082;-68
2023/09/08 00:12:05;;;;;;;2.17;1.20;;;;;;;;;;5055255;28;20490;-67
2023/09/08 00:14:32;;;;;;;1.00;0.80;;;;;;;;;;5068005;28;20133;-66
2023/09/08 00:16:59;;;;;;;3.50;1.53;;;;;;;;;;5075474;28;20030;-70
2023/09/08 00:19:26;;;;;;;1.57;1.10;;;;;;;;;;5065497;28;20020;-69
2023/09/08 00:21:52;;;;;;;1.30;0.90;;;;;;;;;;5053656;28;20399;-69
2023/09/08 00:24:19;;;;;;;2.13;1.53;;;;;;;;;;5049660;28;20033;-69
2023/09/08 00:26:46;;;;;;;15.20;1.20;;;;;;;;;;5049286;28;20044;-73
2023/09/08 00:29:12;;;;;;;2.03;1.20;;;;;;;;;;5037832;28;20095;-69
2023/09/08 00:31:39;;;;;;;2.67;1.60;;;;;;;;;;5050194;28;20725;-68
2023/09/08 00:34:06;;;;;;;1.40;1.00;;;;;;;;;;5055103;28;20039;-69
2023/09/08 00:36:33;;;;;;;1.77;1.20;;;;;;;;;;5054900;28;20095;-69
2023/09/08 00:39:00;;;;;;;1.30;0.97;;;;;;;;;;5054533;28;20022;-67
2023/09/08 00:41:26;;;;;;;0.90;0.83;;;;;;;;;;5054812;28;20020;-68
2023/09/08 00:43:53;;;;;;;1.63;1.13;;;;;;;;;;5052467;28;20399;-71
2023/09/08 00:46:20;;;;;;;2.17;1.00;;;;;;;;;;5049611;28;20139;-69
2023/09/08 00:48:47;;;;;;;1.53;1.17;;;;;;;;;;5031742;28;20080;-68
2023/09/08 00:51:13;;;;;;;1.83;1.37;;;;;;;;;;5049896;28;20078;-68
2023/09/08 00:53:40;;;;;;;2.13;1.40;;;;;;;;;;5049482;28;20017;-69
2023/09/08 00:56:07;;;;;;;1.67;1.20;;;;;;;;;;5054346;28;20043;-69
2023/09/08 00:58:34;;;;;;;1.87;1.23;;;;;;;;;;5054335;28;20029;-69
2023/09/08 01:01:01;;;;;;;2.23;1.43;;;;;;;;;;5054092;28;20059;-68
2023/09/08 01:03:27;;;;;;;1.83;1.30;;;;;;;;;;5054700;28;20029;-68
2023/09/08 01:05:55;;;;;;;1.27;0.97;;;;;;;;;;5054606;28;20474;-68
2023/09/08 01:08:22;;;;;;;0.87;0.77;;;;;;;;;;5049035;28;20088;-68
2023/09/08 01:10:48;;;;;;;1.27;0.87;;;;;;;;;;5049321;28;20032;-68
2023/09/08 01:13:15;;;;;;;2.10;1.30;;;;;;;;;;5048937;28;20351;-68
2023/09/08 01:15:42;;;;;;;4.67;1.53;;;;;;;;;;5048869;28;20514;-68
2023/09/08 01:18:08;;;;;;;5.53;1.90;;;;;;;;;;5053023;28;20036;-68
2023/09/08 01:20:55;;;;;;;1.00;0.90;;;;;;;;;;5053796;28;20021;-67
2023/09/08 01:23:39;;;;;;;2.43;1.13;;;;;;;;;;5053974;28;20498;-68
2023/09/08 01:26:09;;;;;;;1.93;1.37;;;;;;;;;;5034335;28;20113;-68
2023/09/08 01:28:36;;;;;;;1.30;0.70;;;;;;;;;;5047420;28;20449;-67
2023/09/08 01:31:04;;;;;;;1.83;1.07;;;;;;;;;;5049070;28;20807;-67
2023/09/08 01:33:31;;;;;;;1.07;0.77;;;;;;;;;;5048659;28;20036;-67
2023/09/08 01:35:57;;;;;;;4.73;1.10;;;;;;;;;;5048675;28;20055;-66
2023/09/08 01:38:25;;;;;;;3.27;0.77;;;;;;;;;;5048887;28;20032;-67
2023/09/08 01:40:52;;;;;;;2.27;1.17;;;;;;;;;;5053972;28;20021;-67
2023/09/08 01:43:19;;;;;;;2.07;1.40;;;;;;;;;;5053162;28;20052;-67
2023/09/08 01:45:45;;;;;;;1.83;1.30;;;;;;;;;;5054048;28;20021;-67
2023/09/08 01:48:12;;;;;;;1.07;0.87;;;;;;;;;;5053633;28;20320;-66
2023/09/08 01:50:39;;;;;;;1.37;1.07;;;;;;;;;;5053589;28;20021;-66
2023/09/08 01:53:05;;;;;;;6.13;1.17;;;;;;;;;;5048500;28;20036;-66
2023/09/08 01:55:32;;;;;;;2.23;1.40;;;;;;;;;;5030134;28;20430;-66
2023/09/08 01:57:58;;;;;;;4.47;1.20;;;;;;;;;;5048455;28;20086;-66
2023/09/08 02:00:25;;;;;;;1.47;1.10;;;;;;;;;;5048475;28;20056;-66
2023/09/08 02:02:52;;;;;;;4.13;1.40;;;;;;;;;;5052953;28;20021;-66
2023/09/08 02:05:18;;;;;;;1.73;1.33;;;;;;;;;;5052887;28;20036;-66
2023/09/08 02:07:45;;;;;;;1.67;1.30;;;;;;;;;;5053187;28;20025;-65
2023/09/08 02:10:12;;;;;;;2.37;1.40;;;;;;;;;;5035130;28;20087;-66
2023/09/08 02:12:38;;;;;;;2.33;1.40;;;;;;;;;;5053256;28;20487;-67
2023/09/08 02:15:05;;;;;;;1.90;1.33;;;;;;;;;;5046925;28;20063;-67
2023/09/08 02:17:32;;;;;;;2.00;1.47;;;;;;;;;;5047982;28;20028;-67
2023/09/08 02:19:58;;;;;;;1.67;1.23;;;;;;;;;;5047458;28;20484;-66
2023/09/08 02:22:25;;;;;;;1.87;1.40;;;;;;;;;;5047766;28;20022;-66
2023/09/08 02:24:52;;;;;;;3.40;1.87;;;;;;;;;;5051432;28;20032;-66
2023/09/08 02:27:20;;;;;;;1.93;1.30;;;;;;;;;;5052689;28;20025;-66
2023/09/08 02:29:47;;;;;;;2.27;1.40;;;;;;;;;;5052833;28;20048;-67
2023/09/08 02:32:14;;;;;;;2.43;1.43;;;;;;;;;;5052786;28;20025;-66
2023/09/08 02:34:42;;;;;;;3.23;2.33;;;;;;;;;;5045228;28;20036;-67
2023/09/08 02:37:09;;;;;;;3.37;1.93;;;;;;;;;;5047875;28;20025;-67
2023/09/08 02:39:35;;;;;;;2.33;1.67;;;;;;;;;;5047097;28;20029;-67
2023/09/08 02:42:02;;;;;;;3.07;2.10;;;;;;;;;;5047454;28;20028;-66
2023/09/08 02:44:29;;;;;;;11.80;2.10;;;;;;;;;;5046965;28;20020;-66
2023/09/08 02:46:56;;;;;;;2.63;1.70;;;;;;;;;;5049559;28;20043;-67
2023/09/08 02:49:22;;;;;;;2.47;1.30;;;;;;;;;;5049790;28;20029;-66
2023/09/08 02:51:49;;;;;;;3.17;1.57;;;;;;;;;;5050161;28;20458;-66
2023/09/08 02:54:16;;;;;;;2.83;1.40;;;;;;;;;;5050927;28;20067;-67
2023/09/08 02:56:42;;;;;;;3.93;1.93;;;;;;;;;;5051566;28;20028;-66
2023/09/08 02:59:09;;;;;;;1.63;1.10;;;;;;;;;;5048096;28;20035;-66
2023/09/08 03:01:36;;;;;;;5.40;2.10;;;;;;;;;;5046517;28;20040;-67
2023/09/08 03:04:02;;;;;;;3.67;2.10;;;;;;;;;;5046892;28;20104;-67
2023/09/08 03:06:29;;;;;;;4.13;1.73;;;;;;;;;;5045874;28;20029;-67
2023/09/08 03:08:56;;;;;;;2.30;1.37;;;;;;;;;;5049407;28;20468;-67
2023/09/08 03:11:22;;;;;;;3.97;1.63;;;;;;;;;;5051821;28;20025;-66
2023/09/08 03:13:49;;;;;;;4.47;2.03;;;;;;;;;;5052251;28;20025;-67
2023/09/08 03:16:16;;;;;;;4.97;1.77;;;;;;;;;;5052175;28;20495;-66
2023/09/08 03:18:43;;;;;;;3.33;1.60;;;;;;;;;;5051872;28;20021;-67
2023/09/08 03:21:10;;;;;;;2.53;1.40;;;;;;;;;;5048919;28;20056;-66
2023/09/08 03:23:40;;;;;;;1.67;1.00;;;;;;;;;;5046631;28;20033;-66
2023/09/08 03:26:07;;;;;;;3.33;1.30;;;;;;;;;;5046556;28;20531;-66
2023/09/08 03:28:35;;;;;;;1.43;1.10;;;;;;;;;;5046494;28;20387;-66
2023/09/08 03:31:02;;;;;;;1.27;0.97;;;;;;;;;;5049074;28;20051;-66
2023/09/08 03:33:29;;;;;;;1.73;1.20;;;;;;;;;;5051860;28;20021;-67
2023/09/08 03:35:55;;;;;;;2.10;1.20;;;;;;;;;;5051848;28;20029;-66
2023/09/08 03:38:22;;;;;;;0.80;0.70;;;;;;;;;;5051771;28;20024;-67
2023/09/08 03:40:49;;;;;;;1.83;1.30;;;;;;;;;;5052057;28;20099;-66
2023/09/08 03:43:16;;;;;;;1.27;1.03;;;;;;;;;;5048929;28;20029;-66
2023/09/08 03:45:43;;;;;;;2.00;1.40;;;;;;;;;;5046485;28;20100;-67
2023/09/08 03:48:10;;;;;;;2.33;1.40;;;;;;;;;;5046193;28;20036;-67
2023/09/08 03:50:36;;;;;;;1.60;1.13;;;;;;;;;;5046440;28;20049;-66
2023/09/08 03:53:03;;;;;;;0.97;0.80;;;;;;;;;;5047997;28;20545;-66
2023/09/08 03:55:30;;;;;;;3.10;1.10;;;;;;;;;;5051815;28;20021;-66
2023/09/08 03:57:57;;;;;;;2.30;1.20;;;;;;;;;;5051804;28;20078;-66
2023/09/08 04:00:23;;;;;;;1.17;0.70;;;;;;;;;;5051408;28;20074;-67
2023/09/08 04:02:51;;;;;;;2.03;1.37;;;;;;;;;;5051628;28;20021;-66
2023/09/08 04:05:18;;;;;;;1.30;1.00;;;;;;;;;;5049402;28;20056;-67
2023/09/08 04:07:47;;;;;;;5.87;1.60;;;;;;;;;;5046027;28;20059;-67
2023/09/08 04:10:14;;;;;;;2.63;1.73;;;;;;;;;;5046051;28;20349;-66
2023/09/08 04:12:41;;;;;;;4.17;1.67;;;;;;;;;;5046199;28;20025;-66
2023/09/08 04:15:08;;;;;;;1.20;1.07;;;;;;;;;;5047650;28;20480;-66
2023/09/08 04:17:36;;;;;;;3.47;1.93;;;;;;;;;;5033186;28;20021;-66
2023/09/08 04:20:04;;;;;;;2.30;1.50;;;;;;;;;;5037231;28;20029;-66
2023/09/08 04:22:32;;;;;;;3.63;1.80;;;;;;;;;;5055153;28;20043;-65
2023/09/08 04:24:59;;;;;;;2.57;1.67;;;;;;;;;;5055051;28;20021;-66
2023/09/08 04:27:25;;;;;;;2.70;1.63;;;;;;;;;;5053249;28;20029;-66
2023/09/08 04:29:52;;;;;;;2.03;1.50;;;;;;;;;;5049309;28;20052;-66
2023/09/08 04:32:19;;;;;;;1.73;1.40;;;;;;;;;;5049688;28;20023;-65
2023/09/08 04:34:49;;;;;;;2.10;1.43;;;;;;;;;;5049262;28;20017;-66
2023/09/08 04:37:15;;;;;;;1.73;1.20;;;;;;;;;;5050393;28;20163;-65
2023/09/08 04:39:42;;;;;;;1.03;0.73;;;;;;;;;;5053071;28;20013;-65
2023/09/08 04:42:09;;;;;;;2.27;1.30;;;;;;;;;;5054795;28;20025;-65
2023/09/08 04:44:35;;;;;;;1.37;0.90;;;;;;;;;;5054701;28;20098;-65
2023/09/08 04:47:02;;;;;;;0.63;0.60;;;;;;;;;;5054620;28;20083;-66
2023/09/08 04:49:29;;;;;;;0.90;0.67;;;;;;;;;;5053492;28;20087;-65
2023/09/08 04:51:55;;;;;;;1.77;0.70;;;;;;;;;;5049200;28;20472;-65
2023/09/08 04:54:24;;;;;;;1.07;0.77;;;;;;;;;;5049421;28;20490;-65
2023/09/08 04:56:51;;;;;;;2.93;1.07;;;;;;;;;;5049275;28;20468;-65
2023/09/08 04:59:18;;;;;;;3.30;1.00;;;;;;;;;;5049510;28;20033;-65
2023/09/08 05:01:45;;;;;;;1.67;0.83;;;;;;;;;;5054317;28;20075;-65
2023/09/08 05:04:12;;;;;;;0.47;0.40;;;;;;;;;;5054490;28;20029;-65
2023/09/08 05:06:38;;;;;;;0.90;0.53;;;;;;;;;;5054277;28;20025;-66
2023/09/08 05:09:05;;;;;;;0.60;0.50;;;;;;;;;;5054507;28;20025;-65
2023/09/08 05:11:32;;;;;;;0.63;0.53;;;;;;;;;;5053633;28;20029;-66
2023/09/08 05:13:58;;;;;;;0.27;0.20;;;;;;;;;;5048886;28;20472;-65
2023/09/08 05:16:46;;;;;;;6.73;0.90;;;;;;;;;;5048913;28;20523;-65
2023/09/08 05:19:13;;;;;;;0.40;0.30;;;;;;;;;;5048432;28;20025;-66
2023/09/08 05:21:41;;;;;;;0.93;0.63;;;;;;;;;;5049399;28;20040;-65
2023/09/08 05:24:08;;;;;;;0.73;0.60;;;;;;;;;;5036298;28;20419;-65
2023/09/08 05:26:37;;;;;;;1.40;0.90;;;;;;;;;;5054016;28;20021;-65
2023/09/08 05:29:04;;;;;;;0.30;0.30;;;;;;;;;;5053623;28;20033;-65
2023/09/08 05:31:30;;;;;;;0.73;0.53;;;;;;;;;;5053588;28;20033;-66
2023/09/08 05:33:57;;;;;;;0.90;0.50;;;;;;;;;;5052938;28;20017;-66
2023/09/08 05:36:24;;;;;;;0.50;0.43;;;;;;;;;;5048062;28;20025;-65
2023/09/08 05:38:50;;;;;;;0.10;0.10;;;;;;;;;;5048254;28;20256;-66
2023/09/08 05:41:17;;;;;;;1.40;0.70;;;;;;;;;;5048510;28;20025;-65
2023/09/08 05:43:43;;;;;;;3.90;0.93;;;;;;;;;;5048375;28;20375;-66
2023/09/08 05:46:10;;;;;;;4.60;0.80;;;;;;;;;;5053529;28;20021;-66
2023/09/08 05:48:37;;;;;;;0.93;0.50;;;;;;;;;;5053491;28;20414;-65
2023/09/08 05:51:05;;;;;;;0.53;0.43;;;;;;;;;;5053502;28;20024;-66
2023/09/08 05:53:31;;;;;;;1.27;0.73;;;;;;;;;;5053134;28;20476;-65
2023/09/08 05:55:58;;;;;;;0.60;0.40;;;;;;;;;;5053094;28;20027;-66
2023/09/08 05:58:27;;;;;;;0.43;0.27;;;;;;;;;;5048204;28;20024;-66
2023/09/08 06:00:54;;;;;;;0.50;0.40;;;;;;;;;;5048267;28;20044;-66
2023/09/08 06:03:20;;;;;;;1.03;0.70;;;;;;;;;;5048194;28;20025;-65
2023/09/08 06:05:47;;;;;;;0.70;0.57;;;;;;;;;;5047906;28;20025;-66
2023/09/08 06:08:14;;;;;;;1.50;0.43;;;;;;;;;;5052586;28;20017;-66
2023/09/08 06:10:40;;;;;;;2.23;1.03;;;;;;;;;;5053212;28;20102;-64
2023/09/08 06:13:07;;;;;;;1.13;0.50;;;;;;;;;;5053008;28;20040;-64
2023/09/08 06:15:34;;;;;;;1.33;0.57;;;;;;;;;;5053064;28;20031;-65
2023/09/08 06:18:00;;;;;;;0.83;0.77;;;;;;;;;;5053028;28;20032;-64
2023/09/08 06:20:27;;;;;;;1.00;0.57;;;;;;;;;;5047622;28;20021;-65
2023/09/08 06:22:54;;;;;;;0.30;0.30;;;;;;;;;;5047657;28;20769;-65
2023/09/08 06:25:20;;;;;;;0.63;0.50;;;;;;;;;;5047185;28;20075;-66
2023/09/08 06:27:47;;;;;;;0.43;0.40;;;;;;;;;;5047317;28;20029;-65
2023/09/08 06:30:16;;;;;;;1.90;0.70;;;;;;;;;;5051896;28;20450;-65
2023/09/08 06:32:42;;;;;;;0.17;0.17;;;;;;;;;;5052645;28;20098;-65
2023/09/08 06:35:09;;;;;;;0.90;0.70;;;;;;;;;;5052759;28;20405;-65
2023/09/08 06:37:37;;;;;;;0.40;0.30;;;;;;;;;;5052690;28;20021;-64
2023/09/08 06:40:04;;;;;;;1.37;0.87;;;;;;;;;;5052670;28;20025;-65
2023/09/08 06:42:31;;;;;;;1.20;0.70;;;;;;;;;;5046313;28;20044;-65
2023/09/08 06:44:57;;;;;;;1.40;0.80;;;;;;;;;;5047291;28;20021;-65
2023/09/08 06:47:24;;;;;;;0.80;0.57;;;;;;;;;;5047236;28;20053;-65
2023/09/08 06:49:50;;;;;;;0.73;0.60;;;;;;;;;;5047115;28;20119;-65
2023/09/08 06:52:18;;;;;;;0.93;0.57;;;;;;;;;;5051033;28;20021;-65
2023/09/08 06:54:47;;;;;;;1.43;0.70;;;;;;;;;;5052323;28;20021;-65
2023/09/08 06:57:14;;;;;;;0.93;0.50;;;;;;;;;;5052212;28;20053;-65
2023/09/08 06:59:41;;;;;;;0.67;0.37;;;;;;;;;;5052047;28;20369;-65
2023/09/08 07:02:08;;;;;;;0.50;0.40;;;;;;;;;;5052335;28;20392;-65
2023/09/08 07:04:34;;;;;;;0.37;0.33;;;;;;;;;;5048003;28;20025;-65
2023/09/08 07:07:06;;;;;;;1.20;0.53;;;;;;;;;;5046855;28;20029;-65
2023/09/08 07:09:34;;;;;;;0.63;0.50;;;;;;;;;;5046870;28;20036;-66
2023/09/08 07:12:01;;;;;;;1.20;0.73;;;;;;;;;;5046733;28;20436;-65
2023/09/08 07:14:27;;;;;;;0.67;0.53;;;;;;;;;;5050051;28;20096;-65
2023/09/08 07:16:54;;;;;;;0.77;0.60;;;;;;;;;;5052014;28;20087;-65
2023/09/08 07:19:21;;;;;;;1.33;0.53;;;;;;;;;;5052210;28;20040;-65
2023/09/08 07:21:47;;;;;;;1.13;0.57;;;;;;;;;;5052224;28;20033;-64
2023/09/08 07:24:14;;;;;;;0.70;0.50;;;;;;;;;;5052116;28;20031;-65
2023/09/08 07:26:41;;;;;;;0.20;0.20;;;;;;;;;;5048063;28;20031;-65
2023/09/08 07:29:07;;;;;;;1.20;0.53;;;;;;;;;;5046648;28;20628;-65
2023/09/08 07:31:34;;;;;;;1.57;0.90;;;;;;;;;;5046414;28;20059;-65
2023/09/08 07:34:00;;;;;;;0.43;0.33;;;;;;;;;;5046608;28;20513;-65
2023/09/08 07:36:27;;;;;;;8.37;1.00;;;;;;;;;;5049597;28;20097;-65
2023/09/08 07:38:54;;;;;;;2.50;0.67;;;;;;;;;;5051873;28;20024;-65
2023/09/08 07:41:20;;;;;;;0.40;0.40;;;;;;;;;;5052056;28;20028;-64
2023/09/08 07:43:47;;;;;;;0.67;0.47;;;;;;;;;;5051820;28;20022;-65
2023/09/08 07:46:14;;;;;;;0.67;0.50;;;;;;;;;;5051644;28;20029;-65
2023/09/08 07:48:40;;;;;;;0.90;0.70;;;;;;;;;;5030662;28;20392;-64
2023/09/08 07:51:07;;;;;;;0.30;0.30;;;;;;;;;;5046383;28;20032;-65
2023/09/08 07:53:33;;;;;;;0.73;0.60;;;;;;;;;;5048043;28;20029;-65
2023/09/08 07:56:01;;;;;;;0.63;0.53;;;;;;;;;;5050406;28;20067;-65
2023/09/08 07:58:27;;;;;;;0.40;0.30;;;;;;;;;;5053036;28;20480;-64
2023/09/08 08:00:54;;;;;;;0.67;0.37;;;;;;;;;;5055624;28;20036;-65
2023/09/08 08:03:21;;;;;;;0.60;0.57;;;;;;;;;;5055693;28;20040;-64
2023/09/08 08:05:47;;;;;;;1.07;0.70;;;;;;;;;;5055298;28;20025;-65
2023/09/08 08:08:14;;;;;;;2.80;0.27;;;;;;;;;;5055296;28;20037;-65
2023/09/08 08:10:42;;;;;;;0.93;0.50;;;;;;;;;;5052618;28;20408;-65
2023/09/08 08:13:08;;;;;;;0.57;0.50;;;;;;;;;;5049959;28;20083;-66
2023/09/08 08:15:38;;;;;;;8.43;1.00;;;;;;;;;;5049933;28;20357;-65
2023/09/08 08:18:06;;;;;;;1.43;0.90;;;;;;;;;;5049807;28;20020;-65
2023/09/08 08:20:35;;;;;;;3.67;0.63;;;;;;;;;;5051543;28;20017;-65
2023/09/08 08:23:02;;;;;;;6.13;0.83;;;;;;;;;;5055232;28;20036;-64
2023/09/08 08:25:29;;;;;;;1.43;0.57;;;;;;;;;;5054906;28;20033;-65
2023/09/08 08:28:02;;;;;;;2.63;1.00;;;;;;;;;;5055059;28;20021;-64
2023/09/08 08:30:29;;;;;;;0.57;0.43;;;;;;;;;;5037097;28;20057;-64
2023/09/08 08:32:56;;;;;;;0.43;0.37;;;;;;;;;;5052478;28;20021;-64
2023/09/08 08:35:23;;;;;;;1.53;0.97;;;;;;;;;;5049198;28;20113;-65
2023/09/08 08:37:49;;;;;;;2.13;0.63;;;;;;;;;;5049468;28;20057;-65
2023/09/08 08:40:16;;;;;;;0.50;0.43;;;;;;;;;;5049596;28;20017;-65
2023/09/08 08:42:44;;;;;;;0.40;0.40;;;;;;;;;;5051045;28;20025;-64
2023/09/08 08:45:11;;;;;;;1.10;0.80;;;;;;;;;;5054743;28;20103;-64
2023/09/08 08:47:38;;;;;;;3.93;1.00;;;;;;;;;;5054855;28;20040;-65
2023/09/08 08:50:06;;;;;;;1.17;0.77;;;;;;;;;;5054805;28;20044;-65
2023/09/08 08:52:33;;;;;;;0.90;0.70;;;;;;;;;;5054662;28;20029;-65
2023/09/08 08:55:01;;;;;;;0.40;0.40;;;;;;;;;;5052246;28;20029;-65
2023/09/08 08:57:27;;;;;;;1.20;0.90;;;;;;;;;;5049257;28;20116;-64
2023/09/08 08:59:54;;;;;;;1.47;0.53;;;;;;;;;;5048918;28;20040;-65
2023/09/08 09:02:22;;;;;;;4.60;1.33;;;;;;;;;;5049045;28;20409;-65
2023/09/08 09:04:49;;;;;;;2.20;0.90;;;;;;;;;;5049533;28;20118;-65
2023/09/08 09:07:18;;;;;;;1.13;0.83;;;;;;;;;;5054043;28;20028;-65
2023/09/08 09:09:45;;;;;;;0.97;0.80;;;;;;;;;;5054278;28;20029;-65
2023/09/08 09:12:12;;;;;;;2.93;0.90;;;;;;;;;;5054369;28;20029;-64
2023/09/08 09:14:38;;;;;;;1.03;0.77;;;;;;;;;;5054177;28;20112;-65
2023/09/08 09:17:05;;;;;;;1.73;1.00;;;;;;;;;;5052216;28;20098;-65
2023/09/08 09:19:33;;;;;;;0.87;0.70;;;;;;;;;;5030729;28;20379;-65
2023/09/08 09:22:00;;;;;;;2.87;0.83;;;;;;;;;;5048768;28;20025;-65
2023/09/08 09:24:45;;;;;;;0.73;0.67;;;;;;;;;;5048270;28;20476;-65
2023/09/08 09:27:12;;;;;;;1.13;0.80;;;;;;;;;;5050403;28;20021;-65
2023/09/08 09:29:46;;;;;;;1.03;0.93;;;;;;;;;;5053904;28;20044;-64
2023/09/08 09:32:13;;;;;;;0.90;0.68;;;;;;;;;;5054101;28;20020;-65
2023/09/08 09:34:53;;;;;;;0.87;0.67;;;;;;;;;;5053519;28;20081;-65
2023/09/08 09:37:20;;;;;;;3.00;0.97;;;;;;;;;;5053863;28;20029;-65
2023/09/08 09:39:53;;;;;;;6.13;1.27;;;;;;;;;;5033376;28;20423;-65
2023/09/08 09:42:20;;;;;;;2.00;1.20;;;;;;;;;;5048362;28;20027;-65
2023/09/08 09:44:52;;;;;;;1.13;0.97;;;;;;;;;;5048062;28;20468;-65
2023/09/08 09:47:19;;;;;;;1.07;0.87;;;;;;;;;;5048241;28;20029;-64
2023/09/08 09:49:46;;;;;;;3.47;0.97;;;;;;;;;;5050739;28;20037;-65
2023/09/08 09:52:14;;;;;;;1.20;0.87;;;;;;;;;;5053378;28;20372;-64
2023/09/08 09:54:44;;;;;;;1.33;0.93;;;;;;;;;;5053521;28;20063;-65
2023/09/08 09:57:14;;;;;;;4.10;1.37;;;;;;;;;;5053380;28;20027;-64
2023/09/08 09:59:44;;;;;;;6.33;1.17;;;;;;;;;;5052863;28;20029;-65
2023/09/08 10:02:13;;;;;;;1.17;0.63;;;;;;;;;;5050380;28;20107;-65
2023/09/08 10:04:43;;;;;;;5.60;1.60;;;;;;;;;;5047852;28;20025;-65
2023/09/08 10:07:10;;;;;;;1.43;1.03;;;;;;;;;;5047790;28;20057;-65
2023/09/08 10:09:37;;;;;;;0.90;0.73;;;;;;;;;;5047505;28;20072;-66
2023/09/08 10:12:09;;;;;;;0.80;0.70;;;;;;;;;;5050481;28;20029;-65
2023/09/08 10:14:41;;;;;;;1.37;0.90;;;;;;;;;;5053148;28;20017;-65
2023/09/08 10:17:12;;;;;;;1.20;0.90;;;;;;;;;;5052944;28;20025;-65
2023/09/08 10:19:41;;;;;;;2.07;1.60;;;;;;;;;;5053077;28;20018;-65
2023/09/08 10:22:10;;;;;;;1.57;0.87;;;;;;;;;;5053063;28;20369;-65
2023/09/08 10:24:39;;;;;;;4.40;1.07;;;;;;;;;;5049302;28;20033;-65
2023/09/08 10:27:10;;;;;;;1.17;0.80;;;;;;;;;;5047275;28;20021;-65
2023/09/08 10:29:37;;;;;;;1.67;0.93;;;;;;;;;;5047239;28;20048;-65
2023/09/08 10:32:04;;;;;;;3.27;0.73;;;;;;;;;;5047458;28;20021;-65
2023/09/08 10:34:31;;;;;;;0.67;0.50;;;;;;;;;;5050273;28;20103;-65
2023/09/08 10:36:58;;;;;;;4.07;1.70;;;;;;;;;;5052698;28;20078;-65
2023/09/08 10:39:41;;;;;;;1.73;1.10;;;;;;;;;;5052681;28;20059;-65
2023/09/08 10:42:17;;;;;;;3.67;1.47;;;;;;;;;;5034683;28;20491;-65
2023/09/08 10:44:44;;;;;;;1.10;0.80;;;;;;;;;;5052808;28;20023;-65
2023/09/08 10:47:11;;;;;;;2.03;1.30;;;;;;;;;;5048093;28;20021;-65
2023/09/08 10:49:39;;;;;;;4.47;1.33;;;;;;;;;;5047142;28;20033;-65
2023/09/08 10:52:09;;;;;;;5.83;1.37;;;;;;;;;;5046696;28;20535;-65
2023/09/08 10:54:45;;;;;;;1.77;1.13;;;;;;;;;;5046831;28;20032;-65
2023/09/08 10:57:16;;;;;;;1.77;1.20;;;;;;;;;;5051221;28;20357;-64
2023/09/08 10:59:49;;;;;;;1.73;1.20;;;;;;;;;;5052088;28;20115;-65
2023/09/08 11:02:46;;;;;;;4.43;2.07;;;;;;;;;;5052309;28;20021;-65
2023/09/08 11:05:13;;;;;;;2.97;1.30;;;;;;;;;;5031851;28;20102;-65
2023/09/08 11:07:41;;;;;;;1.43;1.13;;;;;;;;;;5051999;28;20044;-65
2023/09/08 11:10:08;;;;;;;1.77;1.10;;;;;;;;;;5046517;28;20120;-65
2023/09/08 11:12:35;;;;;;;1.63;1.20;;;;;;;;;;5046442;28;20021;-65
2023/09/08 11:15:07;;;;;;;0.90;0.70;;;;;;;;;;5046810;28;20021;-65
2023/09/08 11:17:34;;;;;;;1.70;0.90;;;;;;;;;;5028511;28;20116;-65
2023/09/08 11:20:02;;;;;;;2.93;1.03;;;;;;;;;;5052091;28;20047;-65
2023/09/08 11:22:28;;;;;;;2.90;0.90;;;;;;;;;;5052164;28;20024;-65
2023/09/08 11:24:56;;;;;;;1.50;1.17;;;;;;;;;;5052134;28;20036;-66
2023/09/08 11:27:23;;;;;;;2.10;1.60;;;;;;;;;;5051786;28;20017;-65
2023/09/08 11:29:53;;;;;;;4.27;1.17;;;;;;;;;;5055874;28;20120;-65
2023/09/08 11:32:20;;;;;;;2.57;1.67;;;;;;;;;;5050721;28;20033;-65
2023/09/08 11:34:46;;;;;;;1.60;0.97;;;;;;;;;;5050660;28;20032;-65
2023/09/08 11:37:15;;;;;;;2.23;1.63;;;;;;;;;;5050771;28;20036;-65
2023/09/08 11:39:43;;;;;;;2.47;0.90;;;;;;;;;;5050485;28;20029;-65
2023/09/08 11:42:11;;;;;;;1.27;0.80;;;;;;;;;;5055634;28;20490;-65
2023/09/08 11:44:38;;;;;;;2.60;1.83;;;;;;;;;;5055901;28;20491;-65
2023/09/08 11:47:05;;;;;;;1.43;1.07;;;;;;;;;;5055895;28;20029;-65
2023/09/08 11:49:35;;;;;;;1.13;1.00;;;;;;;;;;5055757;28;20052;-65
2023/09/08 11:52:02;;;;;;;1.07;0.87;;;;;;;;;;5055615;28;20063;-65
2023/09/08 11:54:29;;;;;;;3.40;1.50;;;;;;;;;;5050398;28;20099;-65
2023/09/08 11:56:56;;;;;;;1.80;1.30;;;;;;;;;;5050458;28;20056;-66
2023/09/08 11:59:22;;;;;;;1.63;1.23;;;;;;;;;;5049879;28;20032;-65
2023/09/08 12:01:49;;;;;;;1.40;1.10;;;;;;;;;;5050009;28;20052;-65
2023/09/08 12:04:22;;;;;;;1.20;1.10;;;;;;;;;;5055063;28;20033;-65
2023/09/08 12:06:52;;;;;;;3.63;1.17;;;;;;;;;;5055567;28;20491;-65
2023/09/08 12:09:21;;;;;;;2.53;1.30;;;;;;;;;;5055246;28;20059;-65
2023/09/08 12:11:48;;;;;;;9.03;2.30;;;;;;;;;;5055162;28;20079;-67
2023/09/08 12:14:15;;;;;;;1.37;1.20;;;;;;;;;;5055311;28;20029;-66
2023/09/08 12:16:43;;;;;;;1.30;0.97;;;;;;;;;;5049837;28;20033;-65
2023/09/08 12:19:29;;;;;;;1.33;0.93;;;;;;;;;;5031959;28;20021;-65
2023/09/08 12:21:56;;;;;;;3.00;1.93;;;;;;;;;;5049833;28;20057;-65
2023/09/08 12:24:41;;;;;;;4.63;1.63;;;;;;;;;;5049288;28;20025;-65
2023/09/08 12:27:08;;;;;;;1.15;0.90;;;;;;;;;;5055343;28;20396;-65
2023/09/08 12:29:35;;;;;;;1.17;0.80;;;;;;;;;;5054976;28;20033;-65
2023/09/08 12:32:02;;;;;;;1.60;1.30;;;;;;;;;;5055153;28;20017;-64
2023/09/08 12:34:29;;;;;;;1.57;1.17;;;;;;;;;;5054977;28;20025;-65
2023/09/08 12:36:58;;;;;;;1.97;1.37;;;;;;;;;;5053659;28;20024;-65
2023/09/08 12:39:24;;;;;;;1.23;0.97;;;;;;;;;;5049495;28;20037;-65
2023/09/08 12:41:51;;;;;;;1.90;1.33;;;;;;;;;;5049319;28;20476;-65
2023/09/08 12:44:18;;;;;;;6.00;1.90;;;;;;;;;;5049563;28;20059;-65
2023/09/08 12:46:44;;;;;;;2.20;1.20;;;;;;;;;;5049502;28;20112;-65
2023/09/08 12:49:11;;;;;;;2.83;1.80;;;;;;;;;;5054578;28;20029;-65
2023/09/08 12:51:38;;;;;;;2.53;1.33;;;;;;;;;;5054408;28;20021;-65
2023/09/08 12:54:04;;;;;;;8.57;1.57;;;;;;;;;;5054678;28;20021;-65
2023/09/08 12:56:31;;;;;;;2.07;1.57;;;;;;;;;;5054572;28;20025;-65
2023/09/08 12:58:58;;;;;;;2.67;1.97;;;;;;;;;;5053853;28;20122;-66
2023/09/08 13:01:24;;;;;;;2.57;1.67;;;;;;;;;;5049106;28;20021;-66
2023/09/08 13:03:51;;;;;;;4.53;2.50;;;;;;;;;;5049148;28;20511;-65
2023/09/08 13:06:17;;;;;;;2.47;1.50;;;;;;;;;;5049057;28;20032;-65
2023/09/08 13:08:44;;;;;;;2.90;1.50;;;;;;;;;;5048557;28;20045;-65
2023/09/08 13:11:11;;;;;;;2.20;1.67;;;;;;;;;;5054120;28;20021;-65
2023/09/08 13:13:38;;;;;;;2.00;1.43;;;;;;;;;;5054351;28;20025;-65
2023/09/08 13:16:04;;;;;;;3.97;1.30;;;;;;;;;;5054017;28;20429;-64
2023/09/08 13:18:38;;;;;;;2.77;1.80;;;;;;;;;;5054213;28;20041;-65
2023/09/08 13:21:05;;;;;;;3.17;2.00;;;;;;;;;;5053999;28;20341;-65
2023/09/08 13:23:32;;;;;;;3.47;2.17;;;;;;;;;;5048311;28;20365;-65
2023/09/08 13:25:58;;;;;;;3.83;2.50;;;;;;;;;;5048614;28;20031;-65
2023/09/08 13:28:25;;;;;;;1.47;1.10;;;;;;;;;;5048866;28;20430;-65
2023/09/08 13:30:52;;;;;;;5.40;2.03;;;;;;;;;;5048518;28;20053;-66
2023/09/08 13:33:19;;;;;;;8.40;2.20;;;;;;;;;;5053339;28;20021;-66
2023/09/08 13:35:46;;;;;;;4.70;2.10;;;;;;;;;;5053864;28;20021;-66
2023/09/08 13:38:13;;;;;;;2.60;2.10;;;;;;;;;;5053752;28;20024;-67
2023/09/08 13:40:41;;;;;;;4.97;3.57;;;;;;;;;;5053782;28;20443;-66
2023/09/08 13:43:08;;;;;;;3.03;1.83;;;;;;;;;;5053572;28;20480;-66
2023/09/08 13:45:35;;;;;;;2.90;1.40;;;;;;;;;;5048429;28;20021;-67
2023/09/08 13:48:04;;;;;;;2.57;1.70;;;;;;;;;;5048391;28;20021;-66
2023/09/08 13:50:30;;;;;;;6.63;1.43;;;;;;;;;;5029507;28;20025;-67
2023/09/08 13:52:57;;;;;;;4.90;2.07;;;;;;;;;;5048161;28;20112;-67
2023/09/08 13:55:24;;;;;;;2.43;1.77;;;;;;;;;;5052289;28;20017;-67
2023/09/08 13:57:51;;;;;;;2.83;1.47;;;;;;;;;;5053458;28;20028;-66
2023/09/08 14:00:18;;;;;;;3.07;1.33;;;;;;;;;;5053284;28;20045;-67
2023/09/08 14:02:45;;;;;;;2.33;1.83;;;;;;;;;;5053506;28;20025;-67
2023/09/08 14:05:11;;;;;;;2.33;1.50;;;;;;;;;;5053376;28;20040;-67
2023/09/08 14:07:38;;;;;;;3.17;2.07;;;;;;;;;;5048050;28;20926;-67
2023/09/08 14:10:07;;;;;;;2.40;1.73;;;;;;;;;;5047792;28;20039;-67
2023/09/08 14:12:34;;;;;;;3.83;1.90;;;;;;;;;;5047288;28;20480;-67
2023/09/08 14:15:01;;;;;;;2.13;1.60;;;;;;;;;;5047572;28;20029;-67
2023/09/08 14:17:27;;;;;;;2.97;1.90;;;;;;;;;;5052058;28;20108;-67
2023/09/08 14:19:54;;;;;;;4.83;1.57;;;;;;;;;;5053005;28;20199;-67
2023/09/08 14:22:21;;;;;;;3.53;1.57;;;;;;;;;;5052984;28;20071;-67
2023/09/08 14:24:47;;;;;;;3.33;1.70;;;;;;;;;;5052720;28;20479;-67
2023/09/08 14:27:14;;;;;;;2.07;1.53;;;;;;;;;;5052996;28;20025;-67
2023/09/08 14:29:40;;;;;;;2.43;1.80;;;;;;;;;;5047949;28;20025;-67
2023/09/08 14:32:07;;;;;;;2.57;1.80;;;;;;;;;;5047374;28;20021;-67
2023/09/08 14:34:34;;;;;;;2.70;1.70;;;;;;;;;;5047563;28;20025;-67
2023/09/08 14:37:00;;;;;;;14.40;2.17;;;;;;;;;;5047377;28;20492;-67
2023/09/08 14:39:27;;;;;;;3.17;1.63;;;;;;;;;;5050728;28;20029;-67
2023/09/08 14:41:54;;;;;;;9.60;2.87;;;;;;;;;;5051897;28;20021;-67
2023/09/08 14:44:22;;;;;;;3.07;1.87;;;;;;;;;;5052133;28;20116;-67
2023/09/08 14:46:49;;;;;;;1.10;0.90;;;;;;;;;;5052559;28;20044;-68